Time;durP1;ratioP1;P1;durP2;ratioP2;P2;SDS_P1;SDS_P2;PMS_P1;PMS_P2;Temp;Humidity;BMP_temperature;BMP_pressure;BME280_temperature;BME280_humidity;BME280_pressure;Samples;Min_cycle;Max_cycle;Signal;HPM_P1;HPM_P2
2021/01/09 00:01:46;;;;;;;0.10;0.10;;;-1.10;99.90;;;;;;5080526;28;20024;-86
2021/01/09 00:04:24;;;;;;;0.40;0.40;;;-1.20;99.90;;;;;;5085580;28;20028;-86
2021/01/09 00:06:58;;;;;;;1.60;1.05;;;-1.00;99.90;;;;;;5078138;28;20099;-86
2021/01/09 00:09:27;;;;;;;0.20;0.20;;;-1.10;99.90;;;;;;5086485;28;20689;-86
2021/01/09 00:11:55;;;;;;;0.38;0.38;;;-1.10;99.90;;;;;;5086523;28;20028;-86
2021/01/09 00:14:22;;;;;;;0.20;0.20;;;-1.00;99.90;;;;;;5086072;28;20024;-85
2021/01/09 00:16:49;;;;;;;0.55;0.55;;;-1.00;99.90;;;;;;5081583;28;20086;-86
2021/01/09 00:19:15;;;;;;;0.20;0.20;;;-1.10;99.90;;;;;;5069350;28;20055;-85
2021/01/09 00:21:40;;;;;;;0.13;0.13;;;-1.00;99.90;;;;;;5083550;28;20036;-85
2021/01/09 00:24:09;;;;;;;0.10;0.10;;;-1.10;99.90;;;;;;5082888;28;20520;-86
2021/01/09 00:26:36;;;;;;;0.40;0.40;;;-0.90;99.90;;;;;;5083929;28;20044;-85
2021/01/09 00:29:04;;;;;;;0.10;0.10;;;-1.00;99.90;;;;;;5080769;28;20032;-86
2021/01/09 00:31:45;;;;;;;0.10;0.10;;;-1.00;99.90;;;;;;5082672;28;20035;-86
2021/01/09 00:34:20;;;;;;;0.73;0.73;;;-1.10;99.90;;;;;;5091758;28;20036;-86
2021/01/09 00:36:54;;;;;;;0.20;0.20;;;-0.90;99.90;;;;;;5087066;28;20033;-87
2021/01/09 00:39:25;;;;;;;0.20;0.20;;;-1.00;99.90;;;;;;5075883;28;20120;-86
2021/01/09 00:41:54;;;;;;;0.57;0.57;;;-1.20;99.90;;;;;;5090623;28;20495;-86
2021/01/09 00:44:20;;;;;;;0.10;0.10;;;-1.30;99.90;;;;;;5069365;28;20359;-86
2021/01/09 00:46:46;;;;;;;0.10;0.10;;;-0.90;99.90;;;;;;5076739;28;20110;-86
2021/01/09 00:49:12;;;;;;;0.10;0.10;;;-1.00;99.90;;;;;;5083107;28;20027;-86
2021/01/09 00:51:38;;;;;;;0.10;0.10;;;-1.00;99.90;;;;;;5085642;28;20070;-86
2021/01/09 00:54:04;;;;;;;0.20;0.20;;;-1.10;99.90;;;;;;5076749;28;20379;-86
2021/01/09 00:56:30;;;;;;;0.30;0.30;;;-1.10;99.90;;;;;;5089943;28;20043;-86
2021/01/09 00:59:03;;;;;;;0.50;0.50;;;-1.00;99.90;;;;;;5087477;28;20023;-86
2021/01/09 01:01:37;;;;;;;0.32;0.32;;;-1.30;99.90;;;;;;5086940;28;20032;-86
2021/01/09 01:04:12;;;;;;;0.10;0.10;;;-1.30;99.90;;;;;;5074814;28;20016;-86
2021/01/09 01:06:42;;;;;;;0.20;0.20;;;-1.30;99.90;;;;;;5079748;28;20041;-86
2021/01/09 01:09:10;;;;;;;0.20;0.20;;;-1.40;99.90;;;;;;5082688;28;20035;-86
2021/01/09 01:11:35;;;;;;;0.10;0.10;;;-1.20;99.90;;;;;;5083352;28;20036;-86
2021/01/09 01:14:01;;;;;;;0.20;0.20;;;-1.20;99.90;;;;;;5080034;28;20035;-86
2021/01/09 01:16:27;;;;;;;0.30;0.30;;;-1.20;99.90;;;;;;5091337;28;20024;-86
2021/01/09 01:18:53;;;;;;;0.30;0.30;;;-1.30;99.90;;;;;;5090760;28;20085;-86
2021/01/09 01:21:19;;;;;;;0.15;0.15;;;-1.10;99.90;;;;;;5079581;28;20039;-86
2021/01/09 01:23:45;;;;;;;0.25;0.25;;;-1.10;99.90;;;;;;5075565;28;20020;-86
2021/01/09 01:26:11;;;;;;;0.10;0.10;;;-1.20;99.90;;;;;;5077151;28;20039;-86
2021/01/09 01:28:39;;;;;;;0.20;0.20;;;-1.30;99.90;;;;;;5079038;28;20274;-85
2021/01/09 01:31:25;;;;;;;0.20;0.20;;;-1.20;99.90;;;;;;5084376;28;20035;-85
2021/01/09 01:34:02;;;;;;;0.40;0.40;;;-1.20;99.90;;;;;;5083475;28;20036;-87
2021/01/09 01:36:38;;;;;;;0.15;0.15;;;-1.20;99.90;;;;;;5077552;28;20028;-86
2021/01/09 01:39:07;;;;;;;0.25;0.25;;;-1.10;99.90;;;;;;5088164;28;20032;-86
2021/01/09 01:41:33;;;;;;;2.60;1.88;;;-1.10;99.90;;;;;;5079849;28;20523;-85
2021/01/09 01:43:58;;;;;;;0.10;0.10;;;-1.10;99.90;;;;;;5085966;28;20024;-85
2021/01/09 01:46:24;;;;;;;0.47;0.47;;;-1.10;99.90;;;;;;5084513;28;20547;-85
2021/01/09 01:48:50;;;;;;;5.57;0.63;;;-1.10;99.90;;;;;;5088071;28;20488;-85
2021/01/09 01:51:16;;;;;;;0.40;0.40;;;-1.20;99.90;;;;;;5089165;28;20572;-85
2021/01/09 01:53:42;;;;;;;0.20;0.20;;;-1.20;99.90;;;;;;5085325;28;20089;-87
2021/01/09 01:56:08;;;;;;;0.43;0.43;;;-1.10;99.90;;;;;;5074882;28;20029;-87
2021/01/09 01:58:33;;;;;;;0.47;0.47;;;-1.10;99.90;;;;;;5078314;28;20028;-87
2021/01/09 02:01:04;;;;;;;0.20;0.20;;;-1.10;99.90;;;;;;5078521;28;20101;-87
2021/01/09 02:03:36;;;;;;;0.10;0.10;;;-1.20;99.90;;;;;;5075771;28;20434;-87
2021/01/09 02:06:19;;;;;;;0.10;0.10;;;-1.30;99.90;;;;;;5076673;28;20024;-87
2021/01/09 02:09:01;;;;;;;0.43;0.43;;;-1.10;99.90;;;;;;5085699;28;20028;-87
2021/01/09 02:11:50;;;;;;;0.25;0.25;;;-1.10;99.90;;;;;;5079952;28;20024;-85
2021/01/09 02:14:27;;;;;;;0.28;0.28;;;-1.10;99.90;;;;;;5081957;28;20567;-85
2021/01/09 02:16:55;;;;;;;0.95;0.95;;;-1.10;99.90;;;;;;5079658;28;20029;-85
2021/01/09 02:19:24;;;;;;;0.32;0.32;;;-1.30;99.90;;;;;;5089664;28;20028;-85
2021/01/09 02:21:51;;;;;;;0.10;0.10;;;-1.10;99.90;;;;;;5083307;28;20961;-85
2021/01/09 02:24:17;;;;;;;;;;;-1.20;99.90;;;;;;5072466;28;20032;-85
2021/01/09 02:26:45;;;;;;;0.20;0.20;;;-1.10;99.90;;;;;;5079003;28;19912;-85
2021/01/09 02:29:13;;;;;;;;;;;-1.10;99.90;;;;;;5084425;28;20032;-85
2021/01/09 02:31:57;;;;;;;0.20;0.20;;;-1.30;99.90;;;;;;5081668;28;19907;-85
2021/01/09 02:34:25;;;;;;;0.43;0.40;;;-1.30;99.90;;;;;;5086190;28;20024;-86
2021/01/09 02:36:59;;;;;;;0.25;0.25;;;-1.20;99.90;;;;;;5078701;28;20488;-86
2021/01/09 02:39:25;;;;;;;0.20;0.20;;;-1.10;99.90;;;;;;5082857;28;20016;-85
2021/01/09 02:41:52;;;;;;;0.10;0.10;;;-1.10;99.90;;;;;;5077695;28;20025;-85
2021/01/09 02:44:18;;;;;;;0.10;0.10;;;-1.20;99.90;;;;;;5082640;28;20059;-85
2021/01/09 02:46:44;;;;;;;0.10;0.10;;;-1.10;99.90;;;;;;5084171;28;20095;-85
2021/01/09 02:49:10;;;;;;;0.32;0.32;;;-1.00;99.90;;;;;;5085035;28;20397;-85
2021/01/09 02:51:36;;;;;;;0.10;0.10;;;-1.00;99.90;;;;;;5083288;28;20056;-85
2021/01/09 02:54:01;;;;;;;0.45;0.45;;;-1.00;99.90;;;;;;5075727;28;20035;-85
2021/01/09 02:56:27;;;;;;;0.75;0.75;;;-1.00;99.90;;;;;;5088880;28;20028;-85
2021/01/09 02:59:11;;;;;;;0.10;0.10;;;-1.10;99.90;;;;;;5087160;28;20036;-86
2021/01/09 03:01:42;;;;;;;0.10;0.10;;;-1.20;99.90;;;;;;5074172;28;20062;-87
2021/01/09 03:04:12;;;;;;;0.10;0.10;;;-1.20;99.90;;;;;;5074667;28;20020;-86
2021/01/09 03:06:44;;;;;;;0.40;0.40;;;-1.00;99.90;;;;;;5085749;28;20114;-86
2021/01/09 03:09:13;;;;;;;1.17;0.68;;;-1.00;99.90;;;;;;5075236;28;20031;-87
2021/01/09 03:11:39;;;;;;;0.40;0.40;;;-1.10;99.90;;;;;;5083405;28;20028;-87
2021/01/09 03:14:05;;;;;;;0.10;0.10;;;-1.20;99.90;;;;;;5087306;28;20031;-87
2021/01/09 03:16:31;;;;;;;0.10;0.10;;;-1.20;99.90;;;;;;5088488;28;20032;-86
2021/01/09 03:18:57;;;;;;;0.20;0.20;;;-1.30;99.90;;;;;;5075517;28;20058;-85
2021/01/09 03:21:23;;;;;;;0.30;0.30;;;-1.30;99.90;;;;;;5085346;28;20032;-86
2021/01/09 03:23:48;;;;;;;0.10;0.10;;;-1.30;99.90;;;;;;5085920;28;20039;-85
2021/01/09 03:26:15;;;;;;;0.30;0.30;;;-1.20;99.90;;;;;;5083869;28;20027;-86
2021/01/09 03:28:41;;;;;;;;;;;-0.80;99.90;;;;;;5080381;28;20059;-86
2021/01/09 03:31:11;;;;;;;1.47;0.83;;;-1.00;99.90;;;;;;5081256;28;20340;-86
2021/01/09 03:33:45;;;;;;;0.10;0.10;;;-0.80;99.90;;;;;;5086220;28;20028;-87
2021/01/09 03:36:18;;;;;;;0.30;0.30;;;-1.00;99.90;;;;;;5086972;28;20039;-85
2021/01/09 03:38:53;;;;;;;0.15;0.15;;;-1.00;99.90;;;;;;5079813;28;20516;-85
2021/01/09 03:41:18;;;;;;;0.10;0.10;;;-0.90;99.90;;;;;;5072009;28;20704;-85
2021/01/09 03:43:44;;;;;;;0.17;0.17;;;-1.00;99.90;;;;;;5083101;28;20027;-85
2021/01/09 03:46:10;;;;;;;0.20;0.20;;;-1.00;99.90;;;;;;5088690;28;20578;-86
2021/01/09 03:48:36;;;;;;;0.10;0.10;;;-0.90;99.90;;;;;;5078937;28;20036;-85
2021/01/09 03:51:01;;;;;;;0.10;0.10;;;-0.90;99.90;;;;;;5075695;28;20051;-85
2021/01/09 03:53:27;;;;;;;0.20;0.20;;;-1.10;99.90;;;;;;5074231;28;20063;-85
2021/01/09 03:55:53;;;;;;;0.20;0.20;;;-1.30;99.90;;;;;;5085226;28;20024;-85
2021/01/09 03:58:19;;;;;;;0.40;0.40;;;-1.30;99.90;;;;;;5084794;28;20395;-84
2021/01/09 04:00:48;;;;;;;0.10;0.10;;;-1.10;99.90;;;;;;5077693;28;20127;-85
2021/01/09 04:03:25;;;;;;;2.20;1.65;;;-1.20;99.90;;;;;;5088354;28;20040;-85
2021/01/09 04:05:59;;;;;;;0.30;0.30;;;-1.20;99.90;;;;;;5081470;28;20506;-85
2021/01/09 04:08:24;;;;;;;0.20;0.20;;;-1.30;99.90;;;;;;5083046;28;20048;-85
2021/01/09 04:10:50;;;;;;;0.10;0.10;;;-1.40;99.90;;;;;;5088933;28;20904;-84
2021/01/09 04:13:16;;;;;;;1.30;0.95;;;-1.50;99.90;;;;;;5074698;28;20391;-85
2021/01/09 04:15:42;;;;;;;0.10;0.10;;;-1.30;99.90;;;;;;5092821;28;20107;-85
2021/01/09 04:18:07;;;;;;;0.57;0.57;;;-1.40;99.90;;;;;;5079096;28;20356;-85
2021/01/09 04:20:33;;;;;;;0.10;0.10;;;-1.30;99.90;;;;;;5081531;28;20035;-86
2021/01/09 04:22:59;;;;;;;0.20;0.20;;;-1.20;99.90;;;;;;5078609;28;20061;-83
2021/01/09 04:25:25;;;;;;;0.10;0.10;;;-1.10;99.90;;;;;;5090560;28;20039;-85
2021/01/09 04:27:50;;;;;;;0.47;0.40;;;-0.90;99.90;;;;;;5077448;28;20047;-85
2021/01/09 04:30:27;;;;;;;0.90;0.90;;;-1.10;99.90;;;;;;5083955;28;20502;-85
2021/01/09 04:32:52;;;;;;;0.20;0.20;;;-0.90;99.90;;;;;;5088296;28;20033;-85
2021/01/09 04:35:22;;;;;;;0.10;0.10;;;-1.10;99.90;;;;;;5081542;28;20032;-85
2021/01/09 04:37:55;;;;;;;0.10;0.10;;;-1.00;99.90;;;;;;5087538;28;20039;-85
2021/01/09 04:40:21;;;;;;;0.10;0.10;;;-1.10;99.90;;;;;;5086375;28;20024;-86
2021/01/09 04:42:46;;;;;;;0.30;0.30;;;-1.30;99.90;;;;;;5088719;28;20042;-85
2021/01/09 04:45:13;;;;;;;0.30;0.30;;;-1.30;99.90;;;;;;5094383;28;20420;-86
2021/01/09 04:47:40;;;;;;;0.68;0.68;;;-1.20;99.90;;;;;;5085647;28;20077;-86
2021/01/09 04:50:07;;;;;;;0.10;0.10;;;-1.10;99.90;;;;;;5087658;28;20040;-86
2021/01/09 04:52:35;;;;;;;0.10;0.10;;;-1.10;99.90;;;;;;5078185;28;20032;-87
2021/01/09 04:55:01;;;;;;;0.10;0.10;;;-1.10;99.90;;;;;;5076457;28;20163;-87
2021/01/09 04:57:31;;;;;;;0.10;0.10;;;-1.00;99.90;;;;;;5093418;28;20045;-85
2021/01/09 05:00:07;;;;;;;0.10;0.10;;;-1.10;99.90;;;;;;5086044;28;20085;-86
2021/01/09 05:02:40;;;;;;;0.57;0.57;;;-1.10;99.90;;;;;;5095165;28;20023;-85
2021/01/09 05:05:09;;;;;;;0.10;0.10;;;-1.10;99.90;;;;;;5089146;28;20020;-86
2021/01/09 05:07:43;;;;;;;0.10;0.10;;;-1.10;99.90;;;;;;5084356;28;20024;-86
2021/01/09 05:10:10;;;;;;;1.02;0.93;;;-1.00;99.90;;;;;;5094716;28;20108;-86
2021/01/09 05:12:39;;;;;;;0.10;0.10;;;-0.90;99.90;;;;;;5088519;28;20054;-85
2021/01/09 05:15:05;;;;;;;0.20;0.20;;;-1.00;99.90;;;;;;5092358;28;20028;-85
2021/01/09 05:17:34;;;;;;;0.10;0.10;;;-1.00;99.90;;;;;;5087949;28;20119;-86
2021/01/09 05:20:00;;;;;;;0.32;0.32;;;-0.90;99.90;;;;;;5088542;28;20064;-85
2021/01/09 05:22:27;;;;;;;0.20;0.20;;;-1.10;99.90;;;;;;5081624;28;20441;-86
2021/01/09 05:24:53;;;;;;;;;;;-0.80;99.90;;;;;;5084072;28;20039;-86
2021/01/09 05:27:22;;;;;;;0.20;0.20;;;-0.70;99.90;;;;;;5088171;28;19907;-86
2021/01/09 05:30:05;;;;;;;0.38;0.38;;;-0.70;99.90;;;;;;5077849;28;20366;-86
2021/01/09 05:32:32;;;;;;;0.10;0.10;;;-0.60;99.90;;;;;;5081801;28;20056;-85
2021/01/09 05:35:01;;;;;;;;;;;-0.60;99.90;;;;;;5080235;28;20330;-85
2021/01/09 05:37:27;;;;;;;0.30;0.30;;;-0.60;99.90;;;;;;5084765;28;19915;-85
2021/01/09 05:39:58;;;;;;;0.10;0.10;;;-0.70;99.90;;;;;;5077463;28;20082;-86
2021/01/09 05:42:28;;;;;;;1.00;0.85;;;-0.70;99.90;;;;;;5088413;28;20799;-86
2021/01/09 05:44:57;;;;;;;0.10;0.10;;;-0.70;99.90;;;;;;5086690;28;20024;-87
2021/01/09 05:47:30;;;;;;;0.10;0.10;;;-0.50;99.90;;;;;;5090851;28;20024;-87
2021/01/09 05:49:58;;;;;;;0.32;0.32;;;-0.60;99.90;;;;;;5089155;28;20527;-88
2021/01/09 05:52:26;;;;;;;0.10;0.10;;;-0.60;99.90;;;;;;5086672;28;20403;-86
2021/01/09 05:54:58;;;;;;;0.10;0.10;;;-0.50;99.90;;;;;;5082631;28;20115;-88
2021/01/09 05:57:32;;;;;;;0.20;0.20;;;-0.40;99.90;;;;;;5073454;28;20102;-85
2021/01/09 06:00:04;;;;;;;0.10;0.10;;;-0.30;99.90;;;;;;5083557;28;20051;-85
2021/01/09 06:02:44;;;;;;;0.20;0.20;;;-0.20;99.90;;;;;;5085053;28;20016;-85
2021/01/09 06:05:11;;;;;;;0.10;0.10;;;-0.30;99.90;;;;;;5083633;28;20377;-85
2021/01/09 06:07:39;;;;;;;0.10;0.10;;;-0.30;99.90;;;;;;5085883;28;20024;-84
2021/01/09 06:10:11;;;;;;;1.45;0.57;;;-0.30;99.90;;;;;;5076661;28;20338;-85
2021/01/09 06:12:45;;;;;;;0.20;0.20;;;-0.20;99.90;;;;;;5090153;28;20617;-84
2021/01/09 06:15:16;;;;;;;0.10;0.10;;;-0.20;99.90;;;;;;5089878;28;20035;-84
2021/01/09 06:17:43;;;;;;;0.20;0.20;;;-0.20;99.90;;;;;;5085477;28;20123;-85
2021/01/09 06:20:10;;;;;;;0.50;0.50;;;-0.30;99.90;;;;;;5089704;28;20030;-85
2021/01/09 06:22:37;;;;;;;0.40;0.40;;;-0.30;99.90;;;;;;5090727;28;20070;-86
2021/01/09 06:25:03;;;;;;;0.10;0.10;;;-0.40;99.90;;;;;;5080210;28;20518;-86
2021/01/09 06:27:31;;;;;;;0.20;0.20;;;-0.30;99.90;;;;;;5087236;28;20032;-86
2021/01/09 06:30:03;;;;;;;0.10;0.10;;;-0.30;99.90;;;;;;5089355;28;20020;-87
2021/01/09 06:32:35;;;;;;;0.15;0.15;;;-0.30;99.90;;;;;;5084757;28;20032;-88
2021/01/09 06:35:04;;;;;;;0.20;0.20;;;-0.20;99.90;;;;;;5088462;28;20039;-88
2021/01/09 06:37:29;;;;;;;0.10;0.10;;;-0.40;99.90;;;;;;5090477;28;20020;-89
2021/01/09 06:39:56;;;;;;;0.20;0.20;;;-0.40;99.90;;;;;;5080817;28;20039;-90
2021/01/09 06:42:23;;;;;;;0.10;0.10;;;-0.30;99.90;;;;;;5089339;28;20016;-88
2021/01/09 06:44:51;;;;;;;0.40;0.40;;;-0.20;99.90;;;;;;5085983;28;20035;-88
2021/01/09 06:47:28;;;;;;;0.40;0.40;;;-0.20;99.90;;;;;;5076575;28;20525;-89
2021/01/09 06:49:54;;;;;;;0.30;0.30;;;-0.20;99.90;;;;;;5082645;28;20052;-89
2021/01/09 06:52:20;;;;;;;0.10;0.10;;;-0.10;99.90;;;;;;5089313;28;20034;-89
2021/01/09 06:54:47;;;;;;;0.32;0.32;;;-0.30;99.90;;;;;;5090187;28;20035;-89
2021/01/09 06:57:22;;;;;;;5.43;1.80;;;-0.30;99.90;;;;;;5090036;28;20035;-89
2021/01/09 06:59:50;;;;;;;0.10;0.10;;;-0.20;99.90;;;;;;5077872;28;20029;-88
2021/01/09 07:02:26;;;;;;;0.20;0.20;;;-0.20;99.90;;;;;;5088587;28;20431;-88
2021/01/09 07:05:06;;;;;;;0.40;0.40;;;-0.30;99.90;;;;;;5089060;28;20020;-89
2021/01/09 07:07:36;;;;;;;0.10;0.10;;;-0.30;99.90;;;;;;5075446;28;20024;-87
2021/01/09 07:10:10;;;;;;;0.30;0.30;;;-0.20;99.90;;;;;;5089507;28;20098;-88
2021/01/09 07:12:35;;;;;;;0.10;0.10;;;-0.20;99.90;;;;;;5068816;28;20028;-88
2021/01/09 07:15:05;;;;;;;0.20;0.20;;;0.00;99.90;;;;;;5080222;28;20555;-88
2021/01/09 07:17:40;;;;;;;0.20;0.20;;;-0.20;99.90;;;;;;5083695;28;20028;-88
2021/01/09 07:20:08;;;;;;;0.10;0.10;;;-0.20;99.90;;;;;;5088920;28;20036;-87
2021/01/09 07:22:37;;;;;;;0.20;0.20;;;-0.20;99.90;;;;;;5087670;28;20024;-87
2021/01/09 07:25:06;;;;;;;0.17;0.17;;;0.00;99.90;;;;;;5088829;28;20024;-87
2021/01/09 07:27:41;;;;;;;0.10;0.10;;;0.10;99.90;;;;;;5083599;28;20107;-89
2021/01/09 07:30:18;;;;;;;0.20;0.20;;;0.00;99.90;;;;;;5075069;28;20063;-89
2021/01/09 07:32:53;;;;;;;0.20;0.20;;;0.00;99.90;;;;;;5078463;28;20090;-89
2021/01/09 07:35:25;;;;;;;0.10;0.10;;;0.10;99.90;;;;;;5092040;28;20054;-87
2021/01/09 07:37:56;;;;;;;0.20;0.20;;;0.10;99.90;;;;;;5082332;28;20028;-89
2021/01/09 07:40:24;;;;;;;0.10;0.10;;;0.10;99.90;;;;;;5086401;28;20607;-90
2021/01/09 07:42:50;;;;;;;0.20;0.20;;;0.10;99.90;;;;;;5087923;28;20058;-88
2021/01/09 07:45:18;;;;;;;0.10;0.10;;;0.20;99.90;;;;;;5087925;28;20031;-88
2021/01/09 07:47:46;;;;;;;0.20;0.20;;;0.20;99.90;;;;;;5088236;28;20457;-89
2021/01/09 07:50:15;;;;;;;0.10;0.10;;;0.30;99.90;;;;;;5088516;28;20048;-88
2021/01/09 07:52:41;;;;;;;0.10;0.10;;;0.30;99.90;;;;;;5088857;28;20031;-88
2021/01/09 07:55:09;;;;;;;0.40;0.40;;;0.30;99.90;;;;;;5088831;28;20056;-88
2021/01/09 07:57:38;;;;;;;0.10;0.10;;;0.20;99.90;;;;;;5085671;28;20058;-88
2021/01/09 08:00:07;;;;;;;0.10;0.10;;;0.10;99.90;;;;;;5082487;28;20081;-88
2021/01/09 08:02:35;;;;;;;0.22;0.22;;;0.10;99.90;;;;;;5087837;28;20491;-88
2021/01/09 08:05:07;;;;;;;0.10;0.10;;;0.10;99.90;;;;;;5074787;28;20037;-88
2021/01/09 08:07:38;;;;;;;0.32;0.30;;;0.20;99.90;;;;;;5070055;28;20029;-93
2021/01/09 08:10:16;;;;;;;0.10;0.10;;;0.40;99.90;;;;;;5071411;28;20099;-93
2021/01/09 08:12:41;;;;;;;1.20;1.10;;;0.30;99.90;;;;;;5075282;28;20020;-93
2021/01/09 08:15:08;;;;;;;0.20;0.20;;;0.30;99.90;;;;;;5087682;28;20028;-92
2021/01/09 08:17:33;;;;;;;0.20;0.20;;;0.40;99.90;;;;;;5087186;28;20115;-92
2021/01/09 08:20:10;;;;;;;0.30;0.30;;;0.40;99.90;;;;;;5088993;28;20115;-92
2021/01/09 08:22:38;;;;;;;0.20;0.20;;;0.40;99.90;;;;;;5073339;28;20036;-89
2021/01/09 08:25:10;;;;;;;;;;;0.50;99.90;;;;;;5084892;28;20036;-90
2021/01/09 08:27:47;;;;;;;0.22;0.22;;;0.50;99.90;;;;;;5069604;28;19908;-89
2021/01/09 08:30:15;;;;;;;0.10;0.10;;;0.60;99.90;;;;;;5068064;28;20028;-90
2021/01/09 08:32:46;;;;;;;0.20;0.20;;;0.60;99.90;;;;;;5073387;28;20028;-90
2021/01/09 08:35:20;;;;;;;0.32;0.32;;;0.60;99.90;;;;;;5076258;28;20430;-91
2021/01/09 08:37:55;;;;;;;0.10;0.10;;;0.70;99.90;;;;;;5083864;28;20085;-89
2021/01/09 08:40:24;;;;;;;0.45;0.45;;;0.70;99.90;;;;;;5072196;28;20500;-87
2021/01/09 08:43:16;;;;;;;0.20;0.20;;;0.70;99.90;;;;;;5079521;28;20020;-87
2021/01/09 08:45:53;;;;;;;3.83;0.95;;;0.70;99.90;;;;;;5079699;28;20024;-88
2021/01/09 08:48:28;;;;;;;0.20;0.20;;;0.70;99.90;;;;;;5084146;28;20019;-88
2021/01/09 08:51:09;;;;;;;0.10;0.10;;;0.70;99.90;;;;;;5074362;28;20481;-88
2021/01/09 08:53:47;;;;;;;0.15;0.15;;;0.70;99.90;;;;;;5076471;28;20051;-88
2021/01/09 08:56:14;;;;;;;0.40;0.40;;;0.80;99.90;;;;;;5072671;28;20027;-89
2021/01/09 08:58:40;;;;;;;0.10;0.10;;;0.80;99.90;;;;;;5076970;28;20594;-88
2021/01/09 09:01:16;;;;;;;0.10;0.10;;;0.90;99.90;;;;;;5083627;28;20028;-88
2021/01/09 09:03:52;;;;;;;0.10;0.10;;;1.20;99.90;;;;;;5087903;28;20115;-87
2021/01/09 09:06:22;;;;;;;0.90;0.90;;;1.30;99.90;;;;;;5083578;28;20021;-88
2021/01/09 09:08:48;;;;;;;0.20;0.20;;;1.20;99.90;;;;;;5081618;28;20110;-89
2021/01/09 09:11:17;;;;;;;0.30;0.30;;;1.00;99.90;;;;;;5079167;28;20495;-87
2021/01/09 09:14:01;;;;;;;0.20;0.20;;;1.00;99.90;;;;;;5079454;28;20032;-86
2021/01/09 09:16:27;;;;;;;0.63;0.63;;;1.10;99.90;;;;;;5084423;28;20501;-88
2021/01/09 09:18:53;;;;;;;0.65;0.65;;;1.10;99.90;;;;;;5082553;28;20028;-87
2021/01/09 09:21:19;;;;;;;0.10;0.10;;;1.20;99.90;;;;;;5081800;28;20020;-87
2021/01/09 09:23:58;;;;;;;0.50;0.50;;;1.20;99.90;;;;;;5084482;28;20032;-87
2021/01/09 09:26:31;;;;;;;1.15;1.08;;;1.40;99.90;;;;;;5079462;28;20016;-87
2021/01/09 09:29:03;;;;;;;0.10;0.10;;;1.30;99.90;;;;;;5078444;28;20012;-87
2021/01/09 09:31:41;;;;;;;0.13;0.13;;;1.40;99.90;;;;;;5076833;28;20567;-88
2021/01/09 09:34:17;;;;;;;0.10;0.10;;;1.50;99.90;;;;;;5077581;28;20028;-84
2021/01/09 09:36:51;;;;;;;0.10;0.10;;;1.70;99.90;;;;;;5081297;28;20518;-86
2021/01/09 09:39:23;;;;;;;0.10;0.10;;;1.80;99.90;;;;;;5081860;28;20024;-86
2021/01/09 09:41:57;;;;;;;0.10;0.10;;;1.90;99.90;;;;;;5077111;28;20028;-85
2021/01/09 09:44:44;;;;;;;0.20;0.20;;;1.90;99.90;;;;;;5073698;28;20025;-87
2021/01/09 09:47:11;;;;;;;0.10;0.10;;;1.90;99.90;;;;;;5082860;28;20024;-86
2021/01/09 09:49:42;;;;;;;0.20;0.20;;;1.90;99.90;;;;;;5077946;28;20059;-85
2021/01/09 09:52:19;;;;;;;0.30;0.30;;;1.80;99.90;;;;;;5085573;28;20027;-87
2021/01/09 09:54:59;;;;;;;0.30;0.30;;;1.90;99.90;;;;;;5074918;28;20045;-85
2021/01/09 09:57:25;;;;;;;0.20;0.20;;;2.00;99.90;;;;;;5085488;28;20016;-86
2021/01/09 10:00:11;;;;;;;0.10;0.10;;;2.00;99.90;;;;;;5075970;28;20031;-84
2021/01/09 10:02:37;;;;;;;0.45;0.30;;;2.10;99.90;;;;;;5074678;28;20276;-85
2021/01/09 10:05:13;;;;;;;0.10;0.10;;;2.20;99.90;;;;;;5075791;28;20101;-85
2021/01/09 10:07:39;;;;;;;0.35;0.35;;;2.20;99.90;;;;;;5080827;28;20021;-85
2021/01/09 10:10:19;;;;;;;0.10;0.10;;;2.20;99.90;;;;;;5082295;28;20024;-87
2021/01/09 10:12:58;;;;;;;0.20;0.20;;;2.20;99.90;;;;;;5078019;28;20777;-86
2021/01/09 10:15:24;;;;;;;0.35;0.35;;;2.20;99.90;;;;;;5081712;28;20056;-86
2021/01/09 10:17:59;;;;;;;0.10;0.10;;;2.20;99.90;;;;;;5075235;28;20028;-84
2021/01/09 10:20:25;;;;;;;1.38;0.63;;;2.20;99.90;;;;;;5072530;28;20071;-84
2021/01/09 10:22:51;;;;;;;0.10;0.10;;;2.20;99.90;;;;;;5080750;28;20037;-84
2021/01/09 10:25:17;;;;;;;0.93;0.93;;;2.30;99.90;;;;;;5078611;28;20107;-83
2021/01/09 10:27:43;;;;;;;0.40;0.40;;;2.20;99.90;;;;;;5086023;28;20051;-83
2021/01/09 10:30:10;;;;;;;0.77;0.35;;;2.20;99.90;;;;;;5075683;28;20055;-84
2021/01/09 10:32:36;;;;;;;0.40;0.40;;;2.20;99.90;;;;;;5079352;28;20035;-83
2021/01/09 10:35:02;;;;;;;0.10;0.10;;;2.30;99.90;;;;;;5077904;28;20434;-83
2021/01/09 10:37:28;;;;;;;0.10;0.10;;;2.20;99.90;;;;;;5080065;28;20016;-84
2021/01/09 10:39:54;;;;;;;2.10;0.50;;;2.10;99.90;;;;;;5082578;28;20081;-83
2021/01/09 10:42:20;;;;;;;0.10;0.10;;;2.20;99.90;;;;;;5081533;28;20047;-84
2021/01/09 10:44:48;;;;;;;0.17;0.17;;;2.20;99.90;;;;;;5083897;28;20028;-83
2021/01/09 10:47:14;;;;;;;0.50;0.50;;;2.20;99.90;;;;;;5087114;28;20775;-83
2021/01/09 10:49:40;;;;;;;0.10;0.10;;;2.20;99.90;;;;;;5085973;28;20029;-83
2021/01/09 10:52:06;;;;;;;0.20;0.20;;;2.30;99.90;;;;;;5083805;28;20035;-84
2021/01/09 10:54:32;;;;;;;0.30;0.30;;;2.30;99.90;;;;;;5077003;28;20114;-84
2021/01/09 10:56:58;;;;;;;0.10;0.10;;;2.40;99.90;;;;;;5079190;28;20103;-84
2021/01/09 10:59:24;;;;;;;0.55;0.55;;;2.40;99.90;;;;;;5076638;28;20028;-83
2021/01/09 11:01:50;;;;;;;1.15;1.15;;;2.60;99.90;;;;;;5079348;28;20296;-84
2021/01/09 11:04:16;;;;;;;0.30;0.30;;;2.60;99.90;;;;;;5085068;28;20035;-84
2021/01/09 11:06:42;;;;;;;0.10;0.10;;;2.60;99.90;;;;;;5070416;28;20492;-83
2021/01/09 11:09:08;;;;;;;0.20;0.20;;;2.70;99.90;;;;;;5084833;28;20024;-84
2021/01/09 11:11:34;;;;;;;0.10;0.10;;;2.60;99.90;;;;;;5081458;28;20028;-83
2021/01/09 11:14:00;;;;;;;0.20;0.20;;;2.70;99.90;;;;;;5078025;28;20073;-84
2021/01/09 11:16:26;;;;;;;0.30;0.30;;;2.60;99.90;;;;;;5078115;28;20113;-83
2021/01/09 11:18:52;;;;;;;0.10;0.10;;;2.50;99.90;;;;;;5076372;28;20028;-83
2021/01/09 11:21:21;;;;;;;0.10;0.10;;;2.60;99.90;;;;;;5080996;28;20111;-83
2021/01/09 11:23:49;;;;;;;0.43;0.43;;;2.60;99.90;;;;;;5088233;28;20020;-83
2021/01/09 11:26:25;;;;;;;0.10;0.10;;;2.70;99.90;;;;;;5075853;28;20021;-84
2021/01/09 11:28:52;;;;;;;0.10;0.10;;;2.70;99.90;;;;;;5077106;28;20028;-83
2021/01/09 11:31:19;;;;;;;;;;;2.80;99.90;;;;;;5083303;28;20496;-83
2021/01/09 11:33:45;;;;;;;0.90;0.88;;;2.70;99.90;;;;;;5085481;28;20428;-84
2021/01/09 11:36:12;;;;;;;1.00;0.93;;;2.80;99.90;;;;;;5083796;28;20036;-83
2021/01/09 11:38:38;;;;;;;0.30;0.30;;;2.90;99.90;;;;;;5075080;28;20770;-83
2021/01/09 11:41:05;;;;;;;0.40;0.40;;;2.80;99.90;;;;;;5081381;28;20047;-83
2021/01/09 11:43:32;;;;;;;0.10;0.10;;;2.80;99.90;;;;;;5072505;28;20029;-83
2021/01/09 11:46:01;;;;;;;0.17;0.17;;;2.90;99.90;;;;;;5077163;28;20055;-83
2021/01/09 11:48:29;;;;;;;0.15;0.15;;;2.90;99.90;;;;;;5071309;28;20057;-83
2021/01/09 11:50:55;;;;;;;1.25;0.65;;;2.90;99.90;;;;;;5073063;28;20159;-83
2021/01/09 11:53:22;;;;;;;0.75;0.75;;;2.90;99.90;;;;;;5077956;28;20449;-84
2021/01/09 11:55:49;;;;;;;0.20;0.20;;;2.90;99.90;;;;;;5076985;28;20028;-84
2021/01/09 11:58:16;;;;;;;0.82;0.82;;;2.80;99.90;;;;;;5082572;28;20103;-86
2021/01/09 12:00:42;;;;;;;0.10;0.10;;;3.10;99.90;;;;;;5076687;28;20031;-85
2021/01/09 12:03:08;;;;;;;0.10;0.10;;;3.10;99.90;;;;;;5075783;28;20047;-85
2021/01/09 12:05:34;;;;;;;0.28;0.28;;;3.20;99.90;;;;;;5074427;28;20056;-84
2021/01/09 12:08:03;;;;;;;0.10;0.10;;;3.00;99.90;;;;;;5073364;28;20032;-84
2021/01/09 12:10:34;;;;;;;0.20;0.20;;;3.10;99.90;;;;;;5073769;28;20446;-84
2021/01/09 12:13:04;;;;;;;1.38;0.60;;;3.10;99.90;;;;;;5078401;28;20031;-84
2021/01/09 12:15:31;;;;;;;0.10;0.10;;;3.30;99.90;;;;;;5074770;28;20016;-83
2021/01/09 12:17:56;;;;;;;0.30;0.30;;;3.20;99.90;;;;;;5077165;28;20511;-84
2021/01/09 12:20:23;;;;;;;0.10;0.10;;;3.20;99.90;;;;;;5074549;28;20036;-83
2021/01/09 12:22:48;;;;;;;0.38;0.38;;;3.20;99.90;;;;;;5070912;28;20039;-84
2021/01/09 12:25:14;;;;;;;0.10;0.10;;;3.20;99.90;;;;;;5078628;28;20463;-85
2021/01/09 12:27:40;;;;;;;0.10;0.10;;;3.20;99.90;;;;;;5079180;28;20096;-84
2021/01/09 12:30:06;;;;;;;0.30;0.30;;;3.20;99.90;;;;;;5075332;28;20059;-84
2021/01/09 12:32:32;;;;;;;0.20;0.20;;;3.30;99.90;;;;;;5080941;28;20028;-85
2021/01/09 12:34:59;;;;;;;0.10;0.10;;;3.50;99.90;;;;;;5077789;28;20024;-84
2021/01/09 12:37:25;;;;;;;0.10;0.10;;;3.50;99.90;;;;;;5073388;28;20048;-85
2021/01/09 12:39:51;;;;;;;0.10;0.10;;;3.60;99.90;;;;;;5080509;28;20044;-86
2021/01/09 12:42:17;;;;;;;0.98;0.75;;;3.60;99.90;;;;;;5082189;28;20016;-85
2021/01/09 12:44:43;;;;;;;0.10;0.10;;;3.40;99.90;;;;;;5076174;28;20029;-86
2021/01/09 12:47:12;;;;;;;0.10;0.10;;;3.40;99.90;;;;;;5085777;28;21321;-87
2021/01/09 12:49:39;;;;;;;0.90;0.20;;;3.50;99.90;;;;;;5079991;28;20033;-84
2021/01/09 12:52:04;;;;;;;0.20;0.20;;;3.60;99.90;;;;;;5079274;28;20024;-86
2021/01/09 12:54:30;;;;;;;0.10;0.10;;;3.60;99.90;;;;;;5078990;28;20029;-85
2021/01/09 12:56:56;;;;;;;0.20;0.20;;;3.60;99.90;;;;;;5077575;28;20373;-85
2021/01/09 12:59:26;;;;;;;0.10;0.10;;;3.60;99.90;;;;;;5076811;28;20059;-85
2021/01/09 13:01:57;;;;;;;0.10;0.10;;;3.50;99.90;;;;;;5072515;28;20062;-85
2021/01/09 13:04:25;;;;;;;1.85;1.08;;;3.60;99.90;;;;;;5081579;28;20491;-84